Time,TemperatureF,DewpointF,PressureIn,WindDirection,WindDirectionDegrees,WindSpeedMPH,WindSpeedGustMPH,Humidity,HourlyPrecipIn,Conditions,Clouds,dailyrainin,SoftwareType,DateUTC
2013-03-24 00:26:00,21.2,13.6,30.10,ESE,112,0.0,-999.0,72,-99.99,,,0.00,Acu-Link.com,2013-03-24 07:26:00,
2013-03-24 00:41:00,19.4,11.2,30.10,ESE,112,0.0,-999.0,70,-99.99,,,0.00,Acu-Link.com,2013-03-24 07:41:00,
2013-03-24 01:12:00,19.4,11.9,30.10,SE,135,0.0,-999.0,72,-99.99,,,0.00,Acu-Link.com,2013-03-24 08:12:00,
2013-03-24 01:27:00,19.4,11.6,30.10,ESE,112,0.0,-999.0,71,-99.99,,,0.00,Acu-Link.com,2013-03-24 08:27:00,
2013-03-24 01:42:00,19.4,11.6,30.10,ESE,112,0.0,-999.0,71,-99.99,,,0.00,Acu-Link.com,2013-03-24 08:42:00,
2013-03-24 01:57:00,17.6,10.7,30.11,ESE,112,0.0,-999.0,74,-99.99,,,0.00,Acu-Link.com,2013-03-24 08:57:00,
2013-03-24 02:12:00,17.6,10.7,30.10,ESE,112,0.0,-999.0,74,-99.99,,,0.00,Acu-Link.com,2013-03-24 09:12:00,
2013-03-24 02:27:00,17.6,11.3,30.11,SSE,157,0.0,-999.0,76,-99.99,,,0.00,Acu-Link.com,2013-03-24 09:27:00,
2013-03-24 02:42:00,17.6,11.1,30.11,West,270,0.0,-999.0,75,-99.99,,,0.00,Acu-Link.com,2013-03-24 09:42:00,
2013-03-24 02:57:00,17.6,11.1,30.11,SSW,202,0.0,-999.0,75,-99.99,,,0.00,Acu-Link.com,2013-03-24 09:57:00,
2013-03-24 03:12:00,17.6,11.1,30.11,SE,135,0.0,-999.0,75,-99.99,,,0.00,Acu-Link.com,2013-03-24 10:12:00,
2013-03-24 03:27:00,15.8,9.6,30.12,ESE,112,0.0,-999.0,76,-99.99,,,0.00,Acu-Link.com,2013-03-24 10:27:00,
2013-03-24 03:42:00,15.8,9.9,30.12,South,180,0.0,-999.0,77,-99.99,,,0.00,Acu-Link.com,2013-03-24 10:42:00,
2013-03-24 03:57:00,15.8,9.9,30.11,SE,135,0.0,-999.0,77,-99.99,,,0.00,Acu-Link.com,2013-03-24 10:57:00,
2013-03-24 04:12:00,14.0,9.0,30.11,SSE,157,0.0,-999.0,80,-99.99,,,0.00,Acu-Link.com,2013-03-24 11:12:00,
2013-03-24 04:28:00,15.8,10.5,30.11,SSW,202,0.0,-999.0,79,-99.99,,,0.00,Acu-Link.com,2013-03-24 11:28:00,
2013-03-24 04:43:00,14.0,8.7,30.11,WSW,247,0.0,-999.0,79,-99.99,,,0.00,Acu-Link.com,2013-03-24 11:43:00,
2013-03-24 04:58:00,14.0,9.0,30.11,South,180,0.0,-999.0,80,-99.99,,,0.00,Acu-Link.com,2013-03-24 11:58:00,
2013-03-24 05:13:00,14.0,9.0,30.11,SW,225,0.0,-999.0,80,-99.99,,,0.00,Acu-Link.com,2013-03-24 12:13:00,
2013-03-24 05:28:00,14.0,8.7,30.11,ESE,112,0.0,-999.0,79,-99.99,,,0.00,Acu-Link.com,2013-03-24 12:28:00,
2013-03-24 05:43:00,14.0,8.7,30.11,SSE,157,0.0,-999.0,79,-99.99,,,0.00,Acu-Link.com,2013-03-24 12:43:00,
2013-03-24 05:58:00,14.0,8.7,30.11,SW,225,0.0,-999.0,79,-99.99,,,0.00,Acu-Link.com,2013-03-24 12:58:00,
2013-03-24 06:14:00,12.2,7.0,30.11,SSE,157,0.0,-999.0,79,-99.99,,,0.00,Acu-Link.com,2013-03-24 13:14:00,
2013-03-24 06:29:00,12.2,7.5,30.11,SE,135,0.0,-999.0,81,-99.99,,,0.00,Acu-Link.com,2013-03-24 13:29:00,
2013-03-24 06:44:00,12.2,7.5,30.11,South,180,0.0,-999.0,81,-99.99,,,0.00,Acu-Link.com,2013-03-24 13:44:00,
2013-03-24 06:59:00,12.2,7.2,30.11,ESE,112,0.0,-999.0,80,-99.99,,,0.00,Acu-Link.com,2013-03-24 13:59:00,
2013-03-24 07:14:00,12.2,7.0,30.11,SSE,157,0.0,-999.0,79,-99.99,,,0.00,Acu-Link.com,2013-03-24 14:14:00,
2013-03-24 07:29:00,12.2,7.0,30.11,SSE,157,0.0,-999.0,79,-99.99,,,0.00,Acu-Link.com,2013-03-24 14:29:00,
2013-03-24 07:45:00,12.2,7.2,30.11,SW,225,0.0,-999.0,80,-99.99,,,0.00,Acu-Link.com,2013-03-24 14:45:00,
2013-03-24 08:00:00,12.2,7.0,30.11,SW,225,0.0,-999.0,79,-99.99,,,0.00,Acu-Link.com,2013-03-24 15:00:00,
2013-03-24 08:15:00,14.0,8.7,30.10,SE,135,0.0,-999.0,79,-99.99,,,0.00,Acu-Link.com,2013-03-24 15:15:00,
2013-03-24 08:30:00,17.6,12.2,30.11,WSW,247,0.0,-999.0,79,-99.99,,,0.00,Acu-Link.com,2013-03-24 15:30:00,
2013-03-24 09:01:00,21.2,14.8,30.11,SE,135,1.1,-999.0,76,-99.99,,,0.00,Acu-Link.com,2013-03-24 16:01:00,
2013-03-24 09:16:00,23.0,14.7,30.10,ENE,67,3.1,-999.0,70,-99.99,,,0.00,Acu-Link.com,2013-03-24 16:16:00,
2013-03-24 09:32:00,26.6,16.4,30.10,SSE,157,1.6,-999.0,65,-99.99,,,0.00,Acu-Link.com,2013-03-24 16:32:00,
2013-03-24 10:02:00,30.2,17.2,30.10,ESE,112,1.1,-999.0,58,-99.99,,,0.00,Acu-Link.com,2013-03-24 17:02:00,
2013-03-24 10:17:00,32.0,16.4,30.10,SE,135,2.7,-999.0,52,-99.99,,,0.00,Acu-Link.com,2013-03-24 17:17:00,
2013-03-24 10:33:00,33.8,17.2,30.09,East,90,2.7,-999.0,50,-99.99,,,0.00,Acu-Link.com,2013-03-24 17:33:00,
2013-03-24 10:48:00,33.8,17.2,30.09,SE,135,1.6,-999.0,50,-99.99,,,0.00,Acu-Link.com,2013-03-24 17:48:00,
2013-03-24 11:03:00,35.6,18.8,30.08,West,270,2.0,-999.0,50,-99.99,,,0.00,Acu-Link.com,2013-03-24 18:03:00,
2013-03-24 11:18:00,35.6,16.9,30.08,SE,135,2.7,-999.0,46,-99.99,,,0.00,Acu-Link.com,2013-03-24 18:18:00,
2013-03-24 11:33:00,39.2,19.1,30.08,ESE,112,2.0,-999.0,44,-99.99,,,0.00,Acu-Link.com,2013-03-24 18:33:00,
2013-03-24 11:48:00,37.4,17.5,30.07,ESE,112,2.7,-999.0,44,-99.99,,,0.00,Acu-Link.com,2013-03-24 18:48:00,
2013-03-24 12:04:00,39.2,18.1,30.06,SSE,157,3.6,-999.0,42,-99.99,,,0.00,Acu-Link.com,2013-03-24 19:04:00,
2013-03-24 12:19:00,41.0,19.7,30.06,SW,225,3.1,-999.0,42,-99.99,,,0.00,Acu-Link.com,2013-03-24 19:19:00,
2013-03-24 12:34:00,39.2,16.9,30.05,ESE,112,6.3,-999.0,40,-99.99,,,0.00,Acu-Link.com,2013-03-24 19:34:00,
2013-03-24 12:49:00,41.0,19.1,30.05,ESE,112,2.0,-999.0,41,-99.99,,,0.00,Acu-Link.com,2013-03-24 19:49:00,
2013-03-24 13:04:00,41.0,18.0,30.04,SSE,157,3.1,-999.0,39,-99.99,,,0.00,Acu-Link.com,2013-03-24 20:04:00,
2013-03-24 13:19:00,41.0,18.0,30.04,ESE,112,2.7,-999.0,39,-99.99,,,0.00,Acu-Link.com,2013-03-24 20:19:00,
2013-03-24 13:34:00,41.0,16.1,30.04,ESE,112,4.0,-999.0,36,-99.99,,,0.00,Acu-Link.com,2013-03-24 20:34:00,
2013-03-24 13:49:00,41.0,16.7,30.03,ESE,112,3.6,-999.0,37,-99.99,,,0.00,Acu-Link.com,2013-03-24 20:49:00,
2013-03-24 14:04:00,42.8,17.1,30.02,SE,135,2.7,-999.0,35,-99.99,,,0.00,Acu-Link.com,2013-03-24 21:04:00,
2013-03-24 14:19:00,42.8,17.1,30.02,WSW,247,5.1,-999.0,35,-99.99,,,0.00,Acu-Link.com,2013-03-24 21:19:00,
2013-03-24 14:35:00,42.8,17.1,30.02,South,180,4.0,-999.0,35,-99.99,,,0.00,Acu-Link.com,2013-03-24 21:35:00,
2013-03-24 14:50:00,42.8,17.1,30.01,ESE,112,2.7,-999.0,35,-99.99,,,0.00,Acu-Link.com,2013-03-24 21:50:00,
2013-03-24 15:05:00,42.8,16.4,30.01,NE,45,2.7,-999.0,34,-99.99,,,0.00,Acu-Link.com,2013-03-24 22:05:00,
2013-03-24 15:20:00,42.8,17.1,30.00,WSW,247,1.6,-999.0,35,-99.99,,,0.00,Acu-Link.com,2013-03-24 22:20:00,
2013-03-24 15:35:00,42.8,17.1,30.00,West,270,2.0,-999.0,35,-99.99,,,0.00,Acu-Link.com,2013-03-24 22:35:00,
2013-03-24 15:50:00,42.8,15.7,29.99,SE,135,4.7,-999.0,33,-99.99,,,0.00,Acu-Link.com,2013-03-24 22:50:00,
2013-03-24 16:05:00,42.8,15.7,29.99,East,90,1.1,-999.0,33,-99.99,,,0.00,Acu-Link.com,2013-03-24 23:05:00,
2013-03-24 16:51:00,44.6,16.6,29.97,ESE,112,3.1,-999.0,32,-99.99,,,0.00,Acu-Link.com,2013-03-24 23:51:00,
2013-03-24 17:06:00,42.8,17.1,29.97,SE,135,4.0,-999.0,35,-99.99,,,0.00,Acu-Link.com,2013-03-25 00:06:00,
2013-03-24 17:22:00,42.8,17.7,29.97,SSE,157,1.6,-999.0,36,-99.99,,,0.00,Acu-Link.com,2013-03-25 00:22:00,
2013-03-24 17:37:00,41.0,16.7,29.96,South,180,3.1,-999.0,37,-99.99,,,0.00,Acu-Link.com,2013-03-25 00:37:00,
2013-03-24 18:07:00,41.0,18.6,29.96,SSE,157,2.0,-999.0,40,-99.99,,,0.00,Acu-Link.com,2013-03-25 01:07:00,
2013-03-24 18:22:00,39.2,17.5,29.96,ESE,112,1.6,-999.0,41,-99.99,,,0.00,Acu-Link.com,2013-03-25 01:22:00,
2013-03-24 18:38:00,37.4,16.4,29.95,SE,135,0.0,-999.0,42,-99.99,,,0.00,Acu-Link.com,2013-03-25 01:38:00,
2013-03-24 18:53:00,37.4,18.0,29.95,NE,45,0.0,-999.0,45,-99.99,,,0.00,Acu-Link.com,2013-03-25 01:53:00,
2013-03-24 19:08:00,35.6,17.9,29.95,WNW,292,0.0,-999.0,48,-99.99,,,0.00,Acu-Link.com,2013-03-25 02:08:00,
2013-03-24 19:24:00,35.6,17.9,29.95,ESE,112,0.0,-999.0,48,-99.99,,,0.00,Acu-Link.com,2013-03-25 02:24:00,
2013-03-24 19:39:00,35.6,18.3,29.95,East,90,0.0,-999.0,49,-99.99,,,0.00,Acu-Link.com,2013-03-25 02:39:00,
2013-03-24 19:54:00,35.6,18.3,29.95,ESE,112,0.0,-999.0,49,-99.99,,,0.00,Acu-Link.com,2013-03-25 02:54:00,
2013-03-24 20:09:00,35.6,18.3,29.95,South,180,0.0,-999.0,49,-99.99,,,0.00,Acu-Link.com,2013-03-25 03:09:00,
2013-03-24 20:24:00,33.8,17.2,29.96,East,90,2.7,-999.0,50,-99.99,,,0.00,Acu-Link.com,2013-03-25 03:24:00,
2013-03-24 20:39:00,33.8,17.6,29.96,SSW,202,2.7,-999.0,51,-99.99,,,0.00,Acu-Link.com,2013-03-25 03:39:00,
2013-03-24 20:54:00,33.8,18.1,29.96,South,180,1.1,-999.0,52,-99.99,,,0.00,Acu-Link.com,2013-03-25 03:54:00,
2013-03-24 21:10:00,33.8,18.9,29.96,ESE,112,0.0,-999.0,54,-99.99,,,0.00,Acu-Link.com,2013-03-25 04:10:00,
2013-03-24 21:25:00,33.8,18.1,29.96,ESE,112,3.6,-999.0,52,-99.99,,,0.00,Acu-Link.com,2013-03-25 04:25:00,
2013-03-24 21:40:00,33.8,18.1,29.96,ESE,112,2.7,-999.0,52,-99.99,,,0.00,Acu-Link.com,2013-03-25 04:40:00,
2013-03-24 21:55:00,33.8,18.9,29.96,ESE,112,1.6,-999.0,54,-99.99,,,0.00,Acu-Link.com,2013-03-25 04:55:00,
2013-03-24 22:11:00,33.8,18.5,29.96,SW,225,1.6,-999.0,53,-99.99,,,0.00,Acu-Link.com,2013-03-25 05:11:00,
2013-03-24 22:26:00,33.8,19.4,29.97,ESE,112,0.0,-999.0,55,-99.99,,,0.00,Acu-Link.com,2013-03-25 05:26:00,
2013-03-24 22:56:00,32.0,17.7,29.97,ESE,112,1.6,-999.0,55,-99.99,,,0.00,Acu-Link.com,2013-03-25 05:56:00,
2013-03-24 23:12:00,32.0,17.7,29.97,ESE,112,0.0,-999.0,55,-99.99,,,0.00,Acu-Link.com,2013-03-25 06:12:00,
2013-03-24 23:27:00,32.0,18.1,29.97,ESE,112,2.0,-999.0,56,-99.99,,,0.00,Acu-Link.com,2013-03-25 06:27:00,
2013-03-24 23:42:00,32.0,18.1,29.97,ESE,112,1.6,-999.0,56,-99.99,,,0.00,Acu-Link.com,2013-03-25 06:42:00,
2013-03-24 23:57:00,32.0,18.1,29.96,SW,225,1.1,-999.0,56,-99.99,,,0.00,Acu-Link.com,2013-03-25 06:57:00,